createdAt,value
2022-11-24T00:01:20.168Z,7.44
2022-11-24T00:03:54.460Z,7.46
2022-11-24T00:06:22.287Z,7.42
2022-11-24T00:08:50.869Z,7.38
2022-11-24T00:11:21.851Z,7.40
2022-11-24T00:13:50.475Z,7.37
2022-11-24T00:16:20.193Z,7.37
2022-11-24T00:18:50.221Z,7.35
2022-11-24T00:21:19.943Z,7.34
2022-11-24T00:23:52.113Z,7.34
2022-11-24T00:26:23.402Z,7.36
2022-11-24T00:28:53.049Z,7.36
2022-11-24T00:31:23.122Z,7.37
2022-11-24T00:33:53.053Z,7.37
2022-11-24T00:36:23.049Z,7.37
2022-11-24T00:38:54.752Z,7.32
2022-11-24T00:41:24.866Z,7.14
2022-11-24T00:43:53.152Z,7.24
2022-11-24T00:46:22.037Z,7.14
2022-11-24T00:48:50.020Z,7.19
2022-11-24T00:51:19.339Z,7.12
2022-11-24T00:53:47.724Z,7.06
2022-11-24T00:56:16.156Z,7.07
2022-11-24T00:58:48.479Z,7.06
2022-11-24T01:01:18.581Z,7.09
2022-11-24T01:03:47.543Z,7.08
2022-11-24T01:06:18.972Z,7.07
2022-11-24T01:08:47.599Z,7.15
2022-11-24T01:11:17.198Z,7.13
2022-11-24T01:13:47.364Z,7.07
2022-11-24T01:16:19.044Z,7.07
2022-11-24T01:18:47.625Z,7.02
2022-11-24T01:21:16.496Z,7.02
2022-11-24T01:23:44.317Z,7.02
2022-11-24T01:26:14.338Z,7.05
2022-11-24T01:28:47.489Z,6.98
2022-11-24T01:31:17.390Z,7.07
2022-11-24T01:33:45.291Z,7.11
2022-11-24T01:36:13.738Z,7.09
2022-11-24T01:38:41.857Z,7.10
2022-11-24T01:41:13.163Z,7.09
2022-11-24T01:43:41.541Z,7.15
2022-11-24T01:46:19.220Z,7.13
2022-11-24T01:48:52.699Z,7.13
2022-11-24T01:51:24.783Z,7.10
2022-11-24T01:53:57.918Z,7.06
2022-11-24T01:56:27.268Z,7.04
2022-11-24T01:58:59.522Z,6.87
2022-11-24T02:01:31.086Z,6.77
2022-11-24T02:04:00.854Z,6.78
2022-11-24T02:06:32.394Z,6.79
2022-11-24T02:09:05.400Z,6.83
2022-11-24T02:11:36.720Z,6.89
2022-11-24T02:14:06.056Z,6.91
2022-11-24T02:16:36.351Z,6.84
2022-11-24T02:19:08.008Z,6.78
2022-11-24T02:21:35.842Z,6.79
2022-11-24T02:24:11.118Z,6.82
2022-11-24T02:26:43.971Z,6.85
2022-11-24T02:29:12.911Z,6.85
2022-11-24T02:31:45.919Z,6.87
2022-11-24T02:34:13.730Z,6.88
2022-11-24T02:36:41.517Z,6.88
2022-11-24T02:39:11.878Z,6.91
2022-11-24T02:41:43.226Z,6.94
2022-11-24T02:44:12.496Z,6.97
2022-11-24T02:46:40.419Z,6.97
2022-11-24T02:49:08.305Z,6.98
2022-11-24T02:51:36.112Z,7.00
2022-11-24T02:54:03.945Z,6.98
2022-11-24T02:56:32.144Z,6.99
2022-11-24T02:59:01.295Z,6.98
2022-11-24T03:01:29.143Z,6.95
2022-11-24T03:03:56.989Z,6.83
2022-11-24T03:06:24.763Z,6.75
2022-11-24T03:08:52.541Z,6.64
2022-11-24T03:11:20.334Z,6.59
2022-11-24T03:13:48.134Z,6.50
2022-11-24T03:16:17.293Z,6.33
2022-11-24T03:18:45.166Z,6.14
2022-11-24T03:21:12.984Z,6.02
2022-11-24T03:23:41.171Z,5.92
2022-11-24T03:26:10.097Z,5.85
2022-11-24T03:28:37.993Z,5.76
2022-11-24T03:31:06.519Z,5.72
2022-11-24T03:33:36.374Z,5.67
2022-11-24T03:36:05.327Z,5.67
2022-11-24T03:38:33.291Z,5.67
2022-11-24T03:41:01.340Z,5.67
2022-11-24T03:43:29.164Z,5.68
2022-11-24T03:45:57.096Z,5.65
2022-11-24T03:48:25.028Z,5.67
2022-11-24T03:50:59.118Z,5.65
2022-11-24T03:53:28.628Z,5.65
2022-11-24T03:55:57.071Z,5.65
2022-11-24T03:58:25.174Z,5.65
2022-11-24T04:00:54.656Z,5.64
2022-11-24T04:03:23.329Z,5.54
2022-11-24T04:05:51.531Z,5.66
2022-11-24T04:08:21.224Z,5.68
2022-11-24T04:10:51.749Z,5.68
2022-11-24T04:13:20.139Z,5.72
2022-11-24T04:15:48.455Z,5.75
2022-11-24T04:18:16.401Z,5.77
2022-11-24T04:20:44.819Z,5.68
2022-11-24T04:23:12.950Z,5.64
2022-11-24T04:25:43.623Z,5.65
2022-11-24T04:28:12.909Z,5.64
2022-11-24T04:30:44.517Z,5.68
2022-11-24T04:33:13.336Z,5.74
2022-11-24T04:35:41.267Z,5.74
2022-11-24T04:38:09.079Z,5.88
2022-11-24T04:40:36.858Z,5.95
2022-11-24T04:43:06.112Z,5.89
2022-11-24T04:45:33.952Z,5.84
2022-11-24T04:48:01.753Z,5.80
2022-11-24T04:50:29.566Z,5.76
2022-11-24T04:52:57.455Z,5.71
2022-11-24T04:55:25.234Z,5.68
2022-11-24T04:57:53.023Z,5.64
2022-11-24T05:00:22.474Z,5.59
2022-11-24T05:02:50.357Z,5.57
2022-11-24T05:05:18.331Z,5.14
2022-11-24T05:07:46.184Z,5.56
2022-11-24T05:10:31.730Z,5.54
2022-11-24T05:13:00.269Z,5.52
2022-11-24T05:15:30.056Z,5.46
2022-11-24T05:17:58.326Z,5.41
2022-11-24T05:20:26.274Z,5.38
2022-11-24T05:22:54.060Z,5.37
2022-11-24T05:25:22.083Z,5.33
2022-11-24T05:27:52.155Z,5.26
2022-11-24T05:30:20.400Z,5.10
2022-11-24T05:32:49.667Z,5.19
2022-11-24T05:35:18.897Z,5.22
2022-11-24T05:37:47.506Z,5.20
2022-11-24T05:40:15.552Z,5.16
2022-11-24T05:42:47.580Z,5.22
2022-11-24T05:45:18.667Z,5.04
2022-11-24T05:47:46.945Z,5.14
2022-11-24T05:50:18.002Z,5.15
2022-11-24T05:52:46.114Z,5.12
2022-11-24T05:55:14.960Z,5.15
2022-11-24T05:57:43.098Z,5.12
2022-11-24T06:00:12.930Z,5.14
2022-11-24T06:02:41.407Z,5.14
2022-11-24T06:05:09.636Z,5.11
2022-11-24T06:07:39.422Z,5.08
2022-11-24T06:10:07.715Z,5.11
2022-11-24T06:12:35.592Z,5.26
2022-11-24T06:15:03.492Z,5.26
2022-11-24T06:17:31.340Z,5.26
2022-11-24T06:19:59.138Z,5.23
2022-11-24T06:22:27.131Z,5.16
2022-11-24T06:24:56.253Z,5.08
2022-11-24T06:27:24.562Z,5.03
2022-11-24T06:29:52.796Z,5.11
2022-11-24T06:32:20.767Z,5.13
2022-11-24T06:34:48.620Z,5.17
2022-11-24T06:37:16.541Z,5.19
2022-11-24T06:39:44.328Z,5.19
2022-11-24T06:42:13.479Z,5.28
2022-11-24T06:44:41.721Z,5.43
2022-11-24T06:47:09.679Z,5.47
2022-11-24T06:49:37.526Z,5.38
2022-11-24T06:52:05.721Z,5.38
2022-11-24T06:54:33.741Z,5.41
2022-11-24T06:57:02.052Z,5.43
2022-11-24T06:59:31.182Z,5.45
2022-11-24T07:01:58.994Z,5.51
2022-11-24T07:04:26.844Z,5.51
2022-11-24T07:06:54.616Z,5.51
2022-11-24T07:09:22.397Z,5.49
2022-11-24T07:11:50.211Z,5.50
2022-11-24T07:14:19.197Z,5.52
2022-11-24T07:16:48.442Z,5.60
2022-11-24T07:19:20.160Z,5.68
2022-11-24T07:21:51.147Z,5.67
2022-11-24T07:24:19.011Z,5.68
2022-11-24T07:26:46.875Z,5.70
2022-11-24T07:29:14.972Z,5.84
2022-11-24T07:31:43.317Z,5.89
2022-11-24T07:34:14.577Z,5.88
2022-11-24T07:36:43.042Z,5.76
2022-11-24T07:39:10.892Z,6.00
2022-11-24T07:41:38.699Z,6.00
2022-11-24T07:44:06.803Z,5.98
2022-11-24T07:46:34.638Z,6.00
2022-11-24T07:49:02.584Z,6.06
2022-11-24T07:51:31.697Z,6.05
2022-11-24T07:53:59.612Z,5.93
2022-11-24T07:56:27.395Z,5.89
2022-11-24T07:58:55.195Z,5.87
2022-11-24T08:01:23.104Z,5.87
2022-11-24T08:03:51.145Z,5.87
2022-11-24T08:06:26.175Z,5.89
2022-11-24T08:08:58.678Z,5.90
2022-11-24T08:11:27.108Z,5.88
2022-11-24T08:13:54.948Z,5.88
2022-11-24T08:16:22.901Z,5.87
2022-11-24T08:18:51.872Z,5.94
2022-11-24T08:21:20.118Z,5.95
2022-11-24T08:23:48.175Z,5.94
2022-11-24T08:26:19.302Z,5.93
2022-11-24T08:28:48.311Z,5.95
2022-11-24T08:31:19.582Z,6.01
2022-11-24T08:33:48.068Z,6.07
2022-11-24T08:36:18.015Z,6.14
2022-11-24T08:38:46.522Z,6.18
2022-11-24T08:41:16.249Z,6.24
2022-11-24T08:43:45.590Z,6.37
2022-11-24T08:46:16.957Z,6.40
2022-11-24T08:48:48.093Z,6.28
2022-11-24T08:51:17.988Z,6.22
2022-11-24T08:53:46.633Z,6.21
2022-11-24T08:56:14.821Z,6.33
2022-11-24T08:58:43.229Z,6.39
2022-11-24T09:01:14.847Z,6.40
2022-11-24T09:03:50.032Z,6.51
2022-11-24T09:06:22.680Z,6.59
2022-11-24T09:08:51.193Z,6.62
2022-11-24T09:11:19.986Z,6.59
2022-11-24T09:13:47.794Z,6.56
2022-11-24T09:16:19.464Z,6.57
2022-11-24T09:18:47.821Z,6.64
2022-11-24T09:21:17.026Z,6.79
2022-11-24T09:23:46.104Z,6.70
2022-11-24T09:26:16.811Z,6.78
2022-11-24T09:28:44.706Z,6.76
2022-11-24T09:31:16.062Z,6.66
2022-11-24T09:33:46.643Z,6.54
2022-11-24T09:36:15.287Z,6.63
2022-11-24T09:38:43.457Z,6.58
2022-11-24T09:41:32.955Z,6.43
2022-11-24T09:44:08.912Z,6.54
2022-11-24T09:46:45.267Z,6.54
2022-11-24T09:49:18.652Z,6.52
2022-11-24T09:51:53.919Z,6.43
2022-11-24T09:54:26.418Z,6.41
2022-11-24T09:56:54.285Z,6.51
2022-11-24T09:59:23.410Z,6.67
2022-11-24T10:01:52.643Z,6.86
2022-11-24T10:04:26.075Z,6.92
2022-11-24T10:07:04.671Z,6.80
2022-11-24T10:09:46.371Z,6.76
2022-11-24T10:12:23.591Z,6.78
2022-11-24T10:15:06.458Z,6.75
2022-11-24T10:17:50.574Z,6.74
2022-11-24T10:20:29.235Z,6.70
2022-11-24T10:23:15.443Z,6.69
2022-11-24T10:25:49.633Z,6.76
2022-11-24T10:28:17.581Z,6.86
2022-11-24T10:30:45.795Z,6.96
2022-11-24T10:33:23.203Z,6.99
2022-11-24T10:35:57.728Z,7.04
2022-11-24T10:38:32.974Z,7.13
2022-11-24T10:41:06.498Z,7.24
2022-11-24T10:43:34.298Z,7.38
2022-11-24T10:46:12.193Z,7.50
2022-11-24T10:48:44.423Z,7.60
2022-11-24T10:51:37.503Z,7.68
2022-11-24T10:54:13.464Z,7.78
2022-11-24T10:56:41.699Z,7.80
2022-11-24T10:59:30.149Z,7.80
2022-11-24T11:01:58.105Z,7.85
2022-11-24T11:04:28.328Z,7.90
2022-11-24T11:07:16.450Z,7.94
2022-11-24T11:09:44.385Z,7.99
2022-11-24T11:15:25.362Z,8.14
2022-11-24T11:17:57.318Z,8.19
2022-11-24T11:20:30.207Z,8.28
2022-11-24T11:23:01.656Z,8.33
2022-11-24T11:25:33.696Z,8.38
2022-11-24T11:28:20.592Z,8.47
2022-11-24T11:31:17.115Z,8.61
2022-11-24T11:34:06.451Z,8.80
2022-11-24T11:36:39.388Z,8.83
2022-11-24T11:39:17.512Z,9.04
2022-11-24T11:41:49.186Z,9.03
2022-11-24T11:44:28.278Z,9.06
2022-11-24T11:46:59.931Z,9.09
2022-11-24T11:49:27.816Z,9.07
2022-11-24T11:52:08.973Z,9.04
2022-11-24T11:54:59.172Z,9.05
2022-11-24T11:57:38.878Z,9.03
2022-11-24T12:00:14.336Z,8.94
2022-11-24T12:03:02.143Z,8.91
2022-11-24T12:05:47.237Z,8.89
2022-11-24T12:08:28.408Z,8.83
2022-11-24T12:11:06.151Z,8.75
2022-11-24T12:13:47.417Z,8.70
2022-11-24T12:16:38.778Z,8.62
2022-11-24T12:19:23.691Z,8.58
2022-11-24T12:22:01.149Z,8.57
2022-11-24T12:24:39.927Z,8.59
2022-11-24T12:27:23.090Z,8.58
2022-11-24T12:30:03.644Z,8.58
2022-11-24T12:32:48.474Z,8.56
2022-11-24T12:35:23.231Z,8.52
2022-11-24T12:38:01.267Z,8.48
2022-11-24T12:40:46.864Z,8.45
2022-11-24T12:43:22.342Z,8.41
2022-11-24T12:46:00.263Z,8.35
2022-11-24T12:48:41.904Z,8.25
2022-11-24T12:51:18.679Z,8.20
2022-11-24T12:53:47.870Z,8.19
2022-11-24T12:56:17.880Z,8.13
2022-11-24T12:58:53.068Z,7.92
2022-11-24T13:01:32.865Z,7.82
2022-11-24T13:04:12.539Z,7.64
2022-11-24T13:06:51.450Z,7.60
2022-11-24T13:09:20.012Z,7.56
2022-11-24T13:11:49.526Z,7.58
2022-11-24T13:14:22.193Z,7.49
2022-11-24T13:17:28.044Z,7.52
2022-11-24T13:19:40.554Z,7.51
2022-11-24T13:22:19.145Z,7.46
2022-11-24T13:24:47.056Z,7.40
2022-11-24T13:27:42.516Z,7.38
2022-11-24T13:30:50.888Z,7.39
2022-11-24T13:33:36.887Z,7.37
2022-11-24T13:36:33.499Z,7.35
2022-11-24T13:39:02.338Z,7.38
2022-11-24T13:42:09.693Z,7.40
2022-11-24T13:44:58.971Z,7.46
2022-11-24T13:47:35.951Z,7.50
2022-11-24T13:50:07.078Z,7.58
2022-11-24T13:52:42.829Z,7.65
2022-11-24T13:55:27.100Z,7.66
2022-11-24T13:57:58.704Z,7.64
2022-11-24T14:00:29.785Z,7.69
2022-11-24T14:03:01.683Z,7.76
2022-11-24T14:05:37.690Z,7.89
2022-11-24T14:08:07.446Z,8.06
2022-11-24T14:10:38.116Z,8.15
2022-11-24T14:13:25.581Z,8.15
2022-11-24T14:16:01.361Z,8.13
2022-11-24T14:18:30.148Z,8.06
2022-11-24T14:21:00.901Z,8.04
2022-11-24T14:23:29.192Z,7.99
2022-11-24T14:25:57.139Z,7.97
2022-11-24T14:28:27.513Z,7.88
2022-11-24T14:31:08.469Z,7.85
2022-11-24T14:33:36.666Z,7.78
2022-11-24T14:36:06.543Z,7.77
2022-11-24T14:38:34.905Z,7.72
2022-11-24T14:41:17.276Z,7.60
2022-11-24T14:43:45.156Z,7.49
2022-11-24T14:46:20.461Z,7.46
2022-11-24T14:48:51.222Z,7.42
2022-11-24T14:51:24.079Z,7.37
2022-11-24T14:53:54.459Z,7.33
2022-11-24T14:56:27.781Z,7.32
2022-11-24T14:58:56.587Z,7.25
2022-11-24T15:01:33.771Z,7.23
2022-11-24T15:07:17.480Z,7.15
2022-11-24T15:09:52.746Z,7.12
2022-11-24T15:12:28.973Z,7.13
2022-11-24T15:14:59.815Z,7.12
2022-11-24T15:17:29.593Z,7.07
2022-11-24T15:20:01.122Z,7.09
2022-11-24T15:22:41.405Z,7.03
2022-11-24T15:25:27.906Z,7.05
2022-11-24T15:27:56.187Z,7.01
2022-11-24T15:30:24.458Z,6.95
2022-11-24T15:32:53.450Z,6.94
2022-11-24T15:35:22.768Z,6.96
2022-11-24T15:37:52.347Z,6.93
2022-11-24T15:40:20.405Z,6.90
2022-11-24T15:42:52.427Z,6.82
2022-11-24T15:45:21.119Z,6.88
2022-11-24T15:47:49.302Z,6.89
2022-11-24T15:50:17.939Z,6.90
2022-11-24T15:52:46.603Z,6.90
2022-11-24T15:55:19.549Z,6.93
2022-11-24T15:57:47.839Z,6.91
2022-11-24T16:00:18.178Z,6.84
2022-11-24T16:02:45.976Z,6.87
2022-11-24T16:05:14.728Z,6.69
2022-11-24T16:07:42.964Z,6.79
2022-11-24T16:10:22.694Z,6.77
2022-11-24T16:12:50.539Z,6.73
2022-11-24T16:15:18.362Z,6.68
2022-11-24T16:17:46.318Z,6.69
2022-11-24T16:20:14.369Z,6.70
2022-11-24T16:22:42.463Z,6.70
2022-11-24T16:25:10.832Z,6.68
2022-11-24T16:27:40.216Z,6.68
2022-11-24T16:30:09.563Z,6.68
2022-11-24T16:32:37.465Z,6.66
2022-11-24T16:35:05.977Z,6.66
2022-11-24T16:37:34.031Z,6.66
2022-11-24T16:40:02.597Z,6.58
2022-11-24T16:42:30.889Z,6.67
2022-11-24T16:45:00.144Z,6.67
2022-11-24T16:47:27.991Z,6.67
2022-11-24T16:49:55.840Z,6.64
2022-11-24T16:52:23.764Z,6.60
2022-11-24T16:54:51.605Z,6.57
2022-11-24T16:57:19.759Z,6.53
2022-11-24T16:59:47.576Z,6.51
2022-11-24T17:02:17.023Z,6.48
2022-11-24T17:04:45.243Z,6.51
2022-11-24T17:07:13.758Z,6.51
2022-11-24T17:09:41.724Z,6.51
2022-11-24T17:12:09.515Z,6.54
2022-11-24T17:14:37.552Z,6.50
2022-11-24T17:17:05.548Z,6.46
2022-11-24T17:19:34.794Z,6.42
2022-11-24T17:22:02.672Z,6.39
2022-11-24T17:24:30.512Z,6.39
2022-11-24T17:26:58.343Z,6.39
2022-11-24T17:29:26.111Z,6.48
2022-11-24T17:31:54.096Z,6.52
2022-11-24T17:34:21.971Z,6.55
2022-11-24T17:36:51.131Z,6.53
2022-11-24T17:39:24.551Z,6.53
2022-11-24T17:41:52.767Z,6.54
2022-11-24T17:44:20.590Z,6.58
2022-11-24T17:46:48.427Z,6.61
2022-11-24T17:49:16.258Z,6.60
2022-11-24T17:51:46.191Z,6.63
2022-11-24T17:57:03.224Z,6.65
2022-11-24T17:59:31.244Z,6.63
2022-11-24T18:01:59.152Z,6.65
2022-11-24T18:04:27.136Z,6.64
2022-11-24T18:06:54.914Z,6.66
2022-11-24T18:09:24.150Z,6.66
2022-11-24T18:11:54.611Z,6.72
2022-11-24T18:14:22.526Z,6.73
2022-11-24T18:16:50.446Z,6.50
2022-11-24T18:19:18.376Z,6.68
2022-11-24T18:21:46.526Z,6.65
2022-11-24T18:24:17.527Z,6.61
2022-11-24T18:26:51.003Z,6.57
2022-11-24T18:29:18.826Z,6.59
2022-11-24T18:31:46.773Z,6.60
2022-11-24T18:34:14.674Z,6.65
2022-11-24T18:36:44.940Z,6.56
2022-11-24T18:39:17.778Z,6.60
2022-11-24T18:41:45.743Z,6.55
2022-11-24T18:44:14.940Z,6.55
2022-11-24T18:46:42.743Z,6.51
2022-11-24T18:49:10.620Z,6.46
2022-11-24T18:51:38.616Z,6.42
2022-11-24T18:54:06.532Z,6.39
2022-11-24T18:56:34.464Z,6.38
2022-11-24T18:59:02.351Z,6.38
2022-11-24T19:01:32.250Z,6.37
2022-11-24T19:04:02.764Z,6.39
2022-11-24T19:06:33.073Z,6.46
2022-11-24T19:09:04.850Z,6.52
2022-11-24T19:11:35.528Z,6.57
2022-11-24T19:14:04.171Z,6.63
2022-11-24T19:16:33.817Z,6.67
2022-11-24T19:19:02.881Z,6.63
2022-11-24T19:21:32.466Z,6.63
2022-11-24T19:24:04.927Z,6.57
2022-11-24T19:26:34.846Z,6.48
2022-11-24T19:29:02.980Z,6.39
2022-11-24T19:31:30.850Z,6.32
2022-11-24T19:34:00.150Z,6.24
2022-11-24T19:36:28.098Z,6.22
2022-11-24T19:38:57.779Z,6.18
2022-11-24T19:41:27.686Z,6.14
2022-11-24T19:43:55.625Z,6.11
2022-11-24T19:46:26.192Z,5.98
2022-11-24T19:48:56.228Z,6.06
2022-11-24T19:51:26.782Z,6.03
2022-11-24T19:53:54.976Z,6.08
2022-11-24T19:56:24.893Z,6.07
2022-11-24T19:58:54.393Z,6.12
2022-11-24T20:01:24.580Z,6.15
2022-11-24T20:03:58.814Z,6.12
2022-11-24T20:06:29.060Z,6.10
2022-11-24T20:08:58.559Z,6.11
2022-11-24T20:11:26.655Z,6.18
2022-11-24T20:13:54.802Z,6.19
2022-11-24T20:16:26.528Z,6.20
2022-11-24T20:18:56.506Z,6.20
2022-11-24T20:21:26.039Z,6.19
2022-11-24T20:23:56.672Z,6.11
2022-11-24T20:26:26.315Z,6.17
2022-11-24T20:28:56.120Z,6.18
2022-11-24T20:31:26.457Z,6.20
2022-11-24T20:33:54.752Z,6.20
2022-11-24T20:36:25.153Z,6.04
2022-11-24T20:38:55.957Z,6.13
2022-11-24T20:41:26.334Z,6.06
2022-11-24T20:43:56.440Z,6.07
2022-11-24T20:46:25.921Z,5.96
2022-11-24T20:48:54.586Z,5.87
2022-11-24T20:51:25.327Z,5.84
2022-11-24T20:53:56.696Z,5.86
2022-11-24T20:56:25.903Z,5.88
2022-11-24T20:58:54.819Z,5.93
2022-11-24T21:01:25.518Z,5.97
2022-11-24T21:03:55.306Z,5.99
2022-11-24T21:06:24.042Z,5.98
2022-11-24T21:08:52.115Z,6.02
2022-11-24T21:11:23.644Z,5.94
2022-11-24T21:13:52.323Z,6.08
2022-11-24T21:16:22.092Z,6.08
2022-11-24T21:18:51.847Z,6.12
2022-11-24T21:21:20.984Z,6.00
2022-11-24T21:23:49.266Z,5.89
2022-11-24T21:26:18.519Z,5.93
2022-11-24T21:28:48.753Z,5.95
2022-11-24T21:31:18.926Z,5.81
2022-11-24T21:33:48.165Z,5.75
2022-11-24T21:36:19.014Z,5.78
2022-11-24T21:38:51.173Z,5.84
2022-11-24T21:41:19.207Z,5.91
2022-11-24T21:43:48.430Z,5.78
2022-11-24T21:46:16.713Z,6.00
2022-11-24T21:48:44.894Z,6.01
2022-11-24T21:51:14.166Z,5.97
2022-11-24T21:53:42.507Z,5.90
2022-11-24T21:56:13.748Z,5.93
2022-11-24T21:58:45.896Z,5.79
2022-11-24T22:01:17.040Z,5.81
2022-11-24T22:03:45.803Z,5.76
2022-11-24T22:06:14.064Z,5.79
2022-11-24T22:08:41.963Z,5.82
2022-11-24T22:11:12.890Z,5.83
2022-11-24T22:13:41.047Z,5.85
2022-11-24T22:16:11.128Z,5.84
2022-11-24T22:18:42.067Z,5.73
2022-11-24T22:21:12.811Z,5.84
2022-11-24T22:23:40.948Z,5.87
2022-11-24T22:26:12.338Z,5.86
2022-11-24T22:28:40.495Z,5.83
2022-11-24T22:31:09.904Z,5.82
2022-11-24T22:33:37.826Z,5.86
2022-11-24T22:36:08.094Z,5.83
2022-11-24T22:38:36.953Z,5.79
2022-11-24T22:41:06.682Z,5.71
2022-11-24T22:43:36.277Z,5.68
2022-11-24T22:46:05.278Z,5.61
2022-11-24T22:48:33.802Z,5.48
2022-11-24T22:51:03.368Z,5.33
2022-11-24T22:53:33.080Z,5.25
2022-11-24T22:56:04.071Z,5.27
2022-11-24T22:58:32.949Z,5.33
2022-11-24T23:01:06.137Z,5.35
2022-11-24T23:03:34.755Z,5.33
2022-11-24T23:06:03.356Z,5.32
2022-11-24T23:08:34.214Z,5.32
2022-11-24T23:11:02.756Z,5.32
2022-11-24T23:13:30.758Z,5.33
2022-11-24T23:16:03.117Z,5.23
2022-11-24T23:18:31.309Z,5.23
2022-11-24T23:21:05.658Z,5.05
2022-11-24T23:23:35.505Z,5.15
2022-11-24T23:26:04.959Z,5.19
2022-11-24T23:28:32.912Z,5.18
2022-11-24T23:31:02.816Z,5.04
2022-11-24T23:33:31.550Z,4.92
2022-11-24T23:36:02.289Z,4.85
2022-11-24T23:38:32.729Z,4.77
2022-11-24T23:41:04.509Z,4.78
2022-11-24T23:43:32.726Z,4.73
2022-11-24T23:46:04.355Z,4.75
2022-11-24T23:48:32.450Z,4.76
2022-11-24T23:51:04.947Z,4.70
2022-11-24T23:53:33.502Z,4.68
2022-11-24T23:56:03.411Z,4.74
2022-11-24T23:58:31.809Z,4.80
